createdAt,value
2019-03-28T00:03:19.696Z,20.30
2019-03-28T00:06:43.465Z,24.53
2019-03-28T00:10:07.363Z,21.77
2019-03-28T00:13:31.234Z,21.77
2019-03-28T00:16:55.155Z,19.57
2019-03-28T00:20:18.979Z,21.17
2019-03-28T00:23:44.696Z,22.17
2019-03-28T00:27:08.594Z,19.63
2019-03-28T00:30:32.444Z,22.13
2019-03-28T00:33:56.413Z,21.20
2019-03-28T00:37:20.246Z,21.93
2019-03-28T00:40:44.200Z,20.70
2019-03-28T00:44:08.000Z,21.53
2019-03-28T00:47:31.883Z,21.17
2019-03-28T00:50:55.874Z,21.70
2019-03-28T00:54:19.753Z,22.03
2019-03-28T00:57:44.084Z,21.30
2019-03-28T01:01:08.032Z,21.43
2019-03-28T01:04:31.793Z,21.90
2019-03-28T01:07:55.483Z,23.33
2019-03-28T01:11:19.336Z,23.43
2019-03-28T01:14:43.124Z,25.43
2019-03-28T01:18:06.877Z,23.20
2019-03-28T01:21:30.795Z,23.87
2019-03-28T01:24:57.644Z,24.07
2019-03-28T01:28:20.186Z,27.50
2019-03-28T01:31:43.979Z,23.63
2019-03-28T01:35:07.953Z,21.80
2019-03-28T01:38:31.793Z,24.97
2019-03-28T01:41:55.648Z,24.70
2019-03-28T01:45:19.491Z,25.90
2019-03-28T01:48:43.574Z,22.60
2019-03-28T01:52:07.771Z,23.10
2019-03-28T01:55:31.543Z,25.30
2019-03-28T01:58:55.470Z,25.53
2019-03-28T02:02:19.205Z,26.33
2019-03-28T02:05:43.358Z,25.17
2019-03-28T02:09:07.309Z,24.60
2019-03-28T02:12:31.599Z,28.23
2019-03-28T02:15:55.431Z,27.20
2019-03-28T02:19:19.588Z,25.10
2019-03-28T02:22:43.503Z,24.20
2019-03-28T02:26:07.628Z,25.90
2019-03-28T02:29:31.791Z,27.40
2019-03-28T02:32:55.685Z,27.13
2019-03-28T02:36:20.103Z,27.23
2019-03-28T02:39:43.847Z,27.70
2019-03-28T02:43:07.653Z,28.80
2019-03-28T02:46:40.417Z,30.03
2019-03-28T02:50:06.424Z,30.93
2019-03-28T02:53:30.356Z,31.27
2019-03-28T02:56:54.294Z,33.70
2019-03-28T03:00:18.487Z,36.93
2019-03-28T03:03:42.545Z,35.17
2019-03-28T03:07:06.364Z,36.40
2019-03-28T03:10:30.133Z,35.93
2019-03-28T03:13:53.915Z,40.13
2019-03-28T03:17:18.575Z,42.07
2019-03-28T03:20:43.579Z,40.10
2019-03-28T03:24:08.046Z,40.77
2019-03-28T03:27:32.027Z,41.27
2019-03-28T03:30:55.910Z,42.53
2019-03-28T03:34:19.619Z,41.30
2019-03-28T03:37:43.435Z,43.13
2019-03-28T03:41:07.200Z,44.73
2019-03-28T03:44:31.021Z,45.83
2019-03-28T03:47:54.831Z,47.30
2019-03-28T03:51:18.625Z,41.83
2019-03-28T03:54:42.479Z,46.77
2019-03-28T03:58:15.652Z,44.53
2019-03-28T04:01:31.688Z,45.67
2019-03-28T04:04:56.874Z,43.60
2019-03-28T04:08:20.926Z,48.90
2019-03-28T04:11:44.704Z,45.93
2019-03-28T04:15:08.921Z,47.97
2019-03-28T04:18:32.863Z,49.07
2019-03-28T04:21:56.790Z,48.63
2019-03-28T04:25:20.752Z,51.50
2019-03-28T04:28:45.356Z,47.17
2019-03-28T04:32:09.314Z,51.70
2019-03-28T04:35:33.386Z,46.63
2019-03-28T04:38:57.067Z,47.90
2019-03-28T04:42:20.952Z,47.63
2019-03-28T04:45:44.699Z,51.53
2019-03-28T04:49:08.459Z,49.20
2019-03-28T04:52:32.403Z,50.57
2019-03-28T04:55:56.197Z,50.30
2019-03-28T04:59:19.993Z,48.67
2019-03-28T05:02:46.037Z,53.17
2019-03-28T05:06:09.327Z,64.07
2019-03-28T05:09:33.113Z,52.13
2019-03-28T05:12:56.997Z,51.00
2019-03-28T05:16:20.893Z,53.70
2019-03-28T05:19:44.808Z,55.00
2019-03-28T05:23:08.643Z,54.27
2019-03-28T05:26:32.624Z,54.57
2019-03-28T05:29:56.369Z,56.60
2019-03-28T05:33:20.181Z,50.40
2019-03-28T05:36:44.582Z,50.53
2019-03-28T05:40:08.819Z,49.53
2019-03-28T05:43:32.811Z,48.60
2019-03-28T05:46:56.635Z,49.40
2019-03-28T05:50:20.512Z,46.10
2019-03-28T05:53:44.600Z,46.93
2019-03-28T05:57:08.419Z,49.47
2019-03-28T06:00:32.398Z,49.20
2019-03-28T06:03:56.240Z,54.80
2019-03-28T06:07:22.895Z,49.20
2019-03-28T06:10:49.428Z,44.90
2019-03-28T06:14:16.003Z,47.87
2019-03-28T06:17:40.534Z,45.47
2019-03-28T06:21:04.306Z,43.47
2019-03-28T06:24:29.982Z,46.93
2019-03-28T06:27:54.848Z,43.77
2019-03-28T06:31:19.066Z,42.17
2019-03-28T06:34:43.485Z,44.80
2019-03-28T06:38:07.682Z,44.50
2019-03-28T06:41:31.534Z,43.33
2019-03-28T06:44:55.390Z,42.23
2019-03-28T06:48:19.264Z,42.73
2019-03-28T06:51:43.019Z,41.83
2019-03-28T06:55:07.514Z,39.00
2019-03-28T06:58:31.349Z,39.57
2019-03-28T07:01:55.264Z,38.70
2019-03-28T07:05:19.344Z,39.73
2019-03-28T07:08:43.042Z,37.50
2019-03-28T07:12:06.829Z,35.40
2019-03-28T07:15:30.627Z,41.17
2019-03-28T07:18:54.519Z,36.93
2019-03-28T07:22:18.285Z,36.90
2019-03-28T07:25:42.082Z,36.60
2019-03-28T07:29:05.890Z,39.53
2019-03-28T07:32:29.726Z,38.77
2019-03-28T07:35:53.518Z,37.13
2019-03-28T07:39:19.169Z,36.17
2019-03-28T07:42:42.843Z,35.40
2019-03-28T07:46:06.545Z,33.23
2019-03-28T07:49:30.263Z,35.13
2019-03-28T07:52:54.103Z,34.77
2019-03-28T07:56:17.923Z,36.70
2019-03-28T07:59:44.077Z,36.07
2019-03-28T08:03:07.215Z,34.70
2019-03-28T08:06:31.095Z,33.83
2019-03-28T08:09:54.864Z,34.47
2019-03-28T08:13:18.577Z,32.03
2019-03-28T08:16:42.341Z,28.97
2019-03-28T08:20:09.079Z,36.70
2019-03-28T08:23:35.375Z,26.20
2019-03-28T08:26:58.570Z,20.70
2019-03-28T08:30:25.446Z,20.13
2019-03-28T08:33:49.449Z,19.50
2019-03-28T08:37:14.031Z,20.23
2019-03-28T08:40:40.292Z,19.97
2019-03-28T08:44:07.205Z,20.63
2019-03-28T08:47:29.751Z,20.73
2019-03-28T08:50:53.564Z,18.63
2019-03-28T08:54:17.517Z,14.13
2019-03-28T08:57:41.408Z,17.60
2019-03-28T09:01:06.052Z,21.00
2019-03-28T09:04:30.063Z,13.53
2019-03-28T09:07:53.792Z,11.20
2019-03-28T09:11:17.638Z,10.40
2019-03-28T09:14:41.488Z,9.10
2019-03-28T09:18:05.997Z,9.07
2019-03-28T09:21:29.927Z,9.07
2019-03-28T09:24:53.623Z,8.53
2019-03-28T09:28:17.446Z,9.63
2019-03-28T09:31:41.443Z,10.20
2019-03-28T09:35:07.202Z,9.07
2019-03-28T09:38:31.108Z,10.30
2019-03-28T09:41:54.962Z,10.23
2019-03-28T09:45:18.709Z,17.07
2019-03-28T09:48:42.511Z,8.17
2019-03-28T09:52:06.376Z,8.10
2019-03-28T09:55:30.138Z,9.10
2019-03-28T09:58:54.351Z,8.23
2019-03-28T10:02:18.121Z,9.17
2019-03-28T10:05:42.228Z,9.23
2019-03-28T10:09:07.256Z,9.93
2019-03-28T10:12:34.116Z,10.20
2019-03-28T10:15:57.487Z,10.53
2019-03-28T10:19:21.514Z,10.43
2019-03-28T10:22:45.414Z,10.60
2019-03-28T10:26:09.447Z,13.03
2019-03-28T10:29:33.259Z,10.80
2019-03-28T10:32:57.061Z,10.10
2019-03-28T10:36:20.868Z,13.27
2019-03-28T10:39:44.685Z,12.63
2019-03-28T10:43:08.586Z,13.20
2019-03-28T10:46:32.439Z,13.80
2019-03-28T10:49:56.358Z,15.50
2019-03-28T10:53:20.340Z,28.57
2019-03-28T10:56:51.707Z,13.13
2019-03-28T11:00:23.499Z,12.60
2019-03-28T11:03:36.244Z,12.73
2019-03-28T11:06:59.989Z,13.13
2019-03-28T11:10:23.841Z,12.83
2019-03-28T11:13:47.787Z,11.33
2019-03-28T11:17:11.566Z,9.20
2019-03-28T11:20:36.075Z,9.73
2019-03-28T11:24:00.847Z,13.40
2019-03-28T11:27:24.583Z,9.83
2019-03-28T11:30:48.364Z,9.80
2019-03-28T11:34:12.338Z,10.80
2019-03-28T11:37:36.912Z,9.10
2019-03-28T11:41:00.724Z,9.10
2019-03-28T11:44:24.600Z,9.03
2019-03-28T11:47:48.576Z,10.17
2019-03-28T11:51:12.326Z,10.77
2019-03-28T11:54:36.239Z,10.77
2019-03-28T11:58:00.122Z,12.77
2019-03-28T12:01:23.969Z,9.00
2019-03-28T12:04:47.850Z,13.20
2019-03-28T12:08:11.724Z,9.70
2019-03-28T12:11:35.576Z,10.27
2019-03-28T12:14:59.414Z,17.63
2019-03-28T12:18:25.106Z,22.93
2019-03-28T12:21:48.764Z,10.00
2019-03-28T12:25:12.621Z,16.13
2019-03-28T12:28:36.447Z,12.30
2019-03-28T12:32:13.101Z,8.97
2019-03-28T12:35:25.756Z,8.93
2019-03-28T12:38:49.494Z,12.27
2019-03-28T12:42:13.442Z,18.53
2019-03-28T12:45:37.272Z,8.27
2019-03-28T12:49:01.091Z,8.67
2019-03-28T12:52:24.939Z,7.83
2019-03-28T12:55:48.851Z,7.87
2019-03-28T12:59:12.651Z,7.00
2019-03-28T13:02:36.368Z,7.77
2019-03-28T13:06:00.093Z,6.97
2019-03-28T13:09:24.183Z,7.20
2019-03-28T13:12:48.021Z,7.20
2019-03-28T13:16:11.840Z,7.70
2019-03-28T13:19:35.607Z,8.33
2019-03-28T13:22:59.465Z,8.23
2019-03-28T13:26:23.261Z,7.30
2019-03-28T13:29:47.080Z,8.03
2019-03-28T13:33:10.991Z,8.00
2019-03-28T13:36:35.006Z,8.70
2019-03-28T13:39:59.335Z,8.00
2019-03-28T13:43:24.151Z,8.77
2019-03-28T13:46:48.039Z,10.30
2019-03-28T13:50:12.674Z,14.40
2019-03-28T13:53:39.896Z,9.43
2019-03-28T13:57:02.059Z,10.77
2019-03-28T14:00:31.279Z,14.20
2019-03-28T14:03:55.108Z,10.40
2019-03-28T14:07:18.927Z,9.40
2019-03-28T14:10:42.831Z,9.23
2019-03-28T14:14:06.574Z,9.70
2019-03-28T14:17:30.551Z,7.93
2019-03-28T14:20:54.452Z,8.20
2019-03-28T14:24:19.596Z,6.50
2019-03-28T14:27:43.484Z,7.17
2019-03-28T14:31:07.593Z,7.50
2019-03-28T14:34:31.658Z,7.53
2019-03-28T14:37:56.290Z,11.53
2019-03-28T14:41:20.091Z,9.30
2019-03-28T14:44:43.991Z,14.53
2019-03-28T14:48:08.871Z,10.80
2019-03-28T14:51:32.666Z,44.10
2019-03-28T14:54:56.545Z,13.13
2019-03-28T14:58:22.113Z,7.97
2019-03-28T15:01:46.276Z,7.83
2019-03-28T15:05:10.439Z,8.23
2019-03-28T15:08:34.376Z,8.77
2019-03-28T15:11:58.410Z,7.27
2019-03-28T15:15:24.462Z,7.47
2019-03-28T15:18:48.339Z,10.50
2019-03-28T15:22:12.231Z,9.30
2019-03-28T15:25:36.396Z,7.73
2019-03-28T15:29:00.257Z,7.43
2019-03-28T15:32:24.168Z,6.83
2019-03-28T15:35:48.067Z,8.00
2019-03-28T15:39:11.928Z,8.63
2019-03-28T15:42:37.785Z,8.87
2019-03-28T15:46:01.638Z,11.57
2019-03-28T15:49:26.451Z,10.53
2019-03-28T15:52:50.421Z,8.43
2019-03-28T15:56:15.878Z,10.17
2019-03-28T15:59:39.803Z,7.53
2019-03-28T16:03:04.149Z,8.33
2019-03-28T16:06:27.954Z,18.60
2019-03-28T16:09:54.557Z,14.87
2019-03-28T16:13:22.544Z,12.80
2019-03-28T16:16:45.734Z,7.20
2019-03-28T16:20:10.549Z,10.73
2019-03-28T16:23:34.331Z,8.00
2019-03-28T16:26:58.059Z,6.50
2019-03-28T16:30:38.493Z,6.20
2019-03-28T16:34:07.445Z,5.80
2019-03-28T16:37:32.326Z,8.83
2019-03-28T16:40:56.253Z,10.37
2019-03-28T16:44:22.100Z,6.90
2019-03-28T16:47:46.196Z,5.63
2019-03-28T16:51:10.062Z,7.30
2019-03-28T16:54:33.956Z,10.93
2019-03-28T16:57:57.753Z,15.00
2019-03-28T17:01:21.642Z,13.97
2019-03-28T17:04:45.445Z,16.40
2019-03-28T17:08:09.467Z,11.73
2019-03-28T17:11:33.447Z,17.17
2019-03-28T17:14:57.414Z,10.23
2019-03-28T17:18:21.193Z,12.20
2019-03-28T17:21:45.183Z,10.80
2019-03-28T17:25:09.535Z,10.60
2019-03-28T17:28:33.486Z,9.30
2019-03-28T17:31:57.351Z,13.37
2019-03-28T17:35:21.244Z,10.83
2019-03-28T17:38:45.130Z,13.10
2019-03-28T17:42:09.244Z,13.67
2019-03-28T17:45:33.166Z,13.70
2019-03-28T17:48:57.721Z,12.67
2019-03-28T17:52:21.866Z,45.43
2019-03-28T17:55:46.771Z,25.40
2019-03-28T17:59:11.170Z,15.60
2019-03-28T18:02:38.469Z,25.07
2019-03-28T18:06:02.447Z,16.10
2019-03-28T18:09:27.404Z,16.43
2019-03-28T18:12:51.442Z,19.83
2019-03-28T18:16:15.240Z,23.10
2019-03-28T18:19:39.181Z,22.33
2019-03-28T18:23:03.274Z,22.63
2019-03-28T18:26:28.283Z,26.27
2019-03-28T18:29:52.188Z,50.63
2019-03-28T18:33:16.305Z,53.10
2019-03-28T18:36:40.147Z,43.73
2019-03-28T18:40:07.944Z,33.63
2019-03-28T18:43:32.972Z,29.67
2019-03-28T18:46:56.951Z,37.07
2019-03-28T18:50:21.077Z,37.87
2019-03-28T18:53:44.975Z,30.00
2019-03-28T18:57:09.253Z,33.77
2019-03-28T19:00:33.209Z,36.63
2019-03-28T19:03:57.107Z,39.50
2019-03-28T19:07:21.063Z,46.87
2019-03-28T19:10:45.163Z,44.80
2019-03-28T19:14:09.026Z,45.57
2019-03-28T19:17:33.979Z,43.63
2019-03-28T19:20:57.933Z,44.20
2019-03-28T19:24:22.038Z,39.93
2019-03-28T19:27:46.042Z,71.20
2019-03-28T19:31:10.274Z,46.77
2019-03-28T19:34:34.193Z,40.63
2019-03-28T19:37:58.385Z,42.70
2019-03-28T19:41:22.633Z,40.37
2019-03-28T19:44:46.647Z,59.53
2019-03-28T19:48:10.632Z,45.90
2019-03-28T19:51:34.488Z,38.13
2019-03-28T19:54:58.500Z,38.33
2019-03-28T19:58:22.482Z,43.57
2019-03-28T20:01:46.355Z,42.80
2019-03-28T20:05:10.537Z,36.53
2019-03-28T20:08:34.514Z,35.07
2019-03-28T20:12:02.968Z,34.77
2019-03-28T20:15:24.315Z,36.93
2019-03-28T20:18:48.193Z,34.27
2019-03-28T20:22:13.629Z,40.73
2019-03-28T20:25:39.145Z,34.87
2019-03-28T20:29:03.548Z,33.60
2019-03-28T20:32:27.497Z,31.37
2019-03-28T20:36:11.862Z,32.77
2019-03-28T20:39:16.913Z,31.30
2019-03-28T20:42:40.810Z,34.80
2019-03-28T20:46:04.965Z,46.03
2019-03-28T20:49:28.966Z,34.33
2019-03-28T20:52:52.929Z,35.77
2019-03-28T20:56:17.754Z,35.13
2019-03-28T20:59:42.261Z,33.23
2019-03-28T21:03:06.232Z,34.13
2019-03-28T21:06:30.940Z,34.60
2019-03-28T21:09:55.045Z,34.53
2019-03-28T21:13:18.901Z,34.30
2019-03-28T21:16:42.803Z,34.80
2019-03-28T21:20:08.036Z,36.97
2019-03-28T21:23:32.905Z,35.43
2019-03-28T21:26:57.370Z,35.13
2019-03-28T21:30:21.545Z,37.23
2019-03-28T21:33:45.450Z,38.57
2019-03-28T21:37:09.528Z,37.17
2019-03-28T21:40:33.922Z,37.50
2019-03-28T21:43:57.735Z,38.70
2019-03-28T21:47:21.726Z,41.40
2019-03-28T21:50:45.602Z,39.93
2019-03-28T21:54:09.477Z,37.53
2019-03-28T21:57:33.358Z,40.80
2019-03-28T22:00:57.182Z,44.77
2019-03-28T22:04:22.006Z,40.00
2019-03-28T22:07:46.045Z,41.00
2019-03-28T22:11:09.886Z,40.80
2019-03-28T22:14:34.188Z,43.93
2019-03-28T22:17:57.935Z,46.90
2019-03-28T22:21:21.818Z,52.47
2019-03-28T22:24:45.893Z,47.83
2019-03-28T22:28:09.764Z,48.23
2019-03-28T22:31:33.591Z,43.73
2019-03-28T22:34:57.590Z,48.03
2019-03-28T22:38:21.345Z,52.70
2019-03-28T22:41:45.307Z,51.87
2019-03-28T22:45:09.663Z,52.00
2019-03-28T22:48:34.943Z,51.43
2019-03-28T22:51:58.829Z,47.70
2019-03-28T22:55:22.715Z,44.37
2019-03-28T22:58:46.672Z,55.33
2019-03-28T23:02:10.653Z,57.33
2019-03-28T23:05:34.581Z,67.70
2019-03-28T23:08:58.925Z,51.23
2019-03-28T23:12:22.779Z,53.77
2019-03-28T23:15:46.618Z,52.13
2019-03-28T23:19:12.403Z,53.67
2019-03-28T23:22:36.387Z,52.63
2019-03-28T23:26:00.153Z,51.27
2019-03-28T23:29:23.928Z,52.13
2019-03-28T23:32:47.732Z,52.93
2019-03-28T23:36:11.807Z,76.17
2019-03-28T23:39:35.818Z,65.93
2019-03-28T23:42:59.760Z,46.37
2019-03-28T23:46:23.540Z,47.63
2019-03-28T23:49:47.441Z,60.63
2019-03-28T23:53:11.183Z,156.07
2019-03-28T23:56:35.083Z,63.63
2019-03-28T23:59:58.826Z,59.73
